Time;durP1;ratioP1;P1;durP2;ratioP2;P2;SDS_P1;SDS_P2;PMS_P1;PMS_P2;Temp;Humidity;BMP_temperature;BMP_pressure;BME280_temperature;BME280_humidity;BME280_pressure;Samples;Min_cycle;Max_cycle;Signal;HPM_P1;HPM_P2
2022/04/09 00:02:10;;;;;;;8.70;2.80;;;4.10;1.00;;;;;;5013380;28;20458;-55
2022/04/09 00:04:36;;;;;;;7.20;2.60;;;4.10;1.00;;;;;;5013817;28;20511;-57
2022/04/09 00:07:04;;;;;;;11.20;3.10;;;4.20;99.90;;;;;;5012957;28;20474;-55
2022/04/09 00:09:32;;;;;;;6.07;2.77;;;4.10;11.60;;;;;;5013043;28;20528;-55
2022/04/09 00:11:58;;;;;;;7.80;2.73;;;4.10;99.90;;;;;;5012749;28;20936;-56
2022/04/09 00:14:25;;;;;;;4.47;2.63;;;4.20;99.90;;;;;;5013738;28;20508;-53
2022/04/09 00:16:52;;;;;;;5.30;2.70;;;4.20;94.00;;;;;;5010431;28;20481;-55
2022/04/09 00:19:18;;;;;;;13.53;3.20;;;4.20;1.00;;;;;;5013583;28;20500;-54
2022/04/09 00:21:46;;;;;;;5.27;2.43;;;4.20;1.00;;;;;;5013503;28;20859;-55
2022/04/09 00:24:12;;;;;;;5.77;2.90;;;4.20;1.00;;;;;;5012688;28;20454;-56
2022/04/09 00:26:40;;;;;;;9.47;2.70;;;4.20;1.00;;;;;;5012723;28;20473;-57
2022/04/09 00:29:07;;;;;;;8.60;2.57;;;4.20;1.00;;;;;;5013298;28;20490;-57
2022/04/09 00:31:34;;;;;;;8.53;2.87;;;4.20;44.20;;;;;;5013284;28;20971;-54
2022/04/09 00:34:01;;;;;;;9.13;2.20;;;4.20;99.90;;;;;;4999041;28;20458;-56
2022/04/09 00:36:28;;;;;;;6.27;2.80;;;4.10;99.90;;;;;;4993237;28;20474;-51
2022/04/09 00:38:55;;;;;;;10.63;3.23;;;4.10;1.00;;;;;;4992885;28;20498;-51
2022/04/09 00:41:21;;;;;;;5.57;2.90;;;4.10;1.00;;;;;;4992986;28;20529;-56
2022/04/09 00:43:49;;;;;;;12.00;2.67;;;4.10;1.00;;;;;;4992941;28;20451;-52
2022/04/09 00:46:16;;;;;;;5.80;2.37;;;4.10;1.00;;;;;;4993002;28;20506;-55
2022/04/09 00:48:44;;;;;;;8.70;3.43;;;4.00;99.90;;;;;;4999329;28;20489;-52
2022/04/09 00:51:11;;;;;;;12.63;3.13;;;4.00;99.90;;;;;;4991408;28;20509;-55
2022/04/09 00:53:41;;;;;;;7.90;3.17;;;4.10;99.90;;;;;;4995554;28;20450;-53
2022/04/09 00:56:16;;;;;;;5.53;2.73;;;4.10;99.90;;;;;;5012182;28;20481;-55
2022/04/09 00:58:55;;;;;;;7.17;2.40;;;4.10;99.90;;;;;;5012516;28;20461;-54
2022/04/09 01:01:23;;;;;;;5.40;2.70;;;4.10;99.90;;;;;;5012693;28;20462;-55
2022/04/09 01:03:51;;;;;;;6.97;2.73;;;4.10;99.90;;;;;;5012634;28;20496;-55
2022/04/09 01:06:18;;;;;;;12.50;3.20;;;4.10;99.90;;;;;;5004774;28;21020;-57
2022/04/09 01:08:45;;;;;;;10.63;2.67;;;4.10;99.90;;;;;;4992821;28;20483;-53
2022/04/09 01:11:13;;;;;;;9.23;2.83;;;4.10;99.90;;;;;;4992817;28;20455;-56
2022/04/09 01:13:40;;;;;;;4.53;2.47;;;4.10;99.90;;;;;;4993033;28;20864;-55
2022/04/09 01:16:08;;;;;;;10.03;2.70;;;4.10;99.90;;;;;;4991695;28;20450;-52
2022/04/09 01:18:36;;;;;;;9.63;3.70;;;4.10;71.00;;;;;;4992625;28;20513;-54
2022/04/09 01:21:03;;;;;;;11.70;2.87;;;4.10;1.00;;;;;;4992394;28;20528;-54
2022/04/09 01:23:32;;;;;;;8.93;2.87;;;4.10;1.00;;;;;;4993168;28;20455;-57
2022/04/09 01:26:00;;;;;;;9.20;2.90;;;4.10;1.00;;;;;;5011732;28;20450;-56
2022/04/09 01:28:27;;;;;;;11.23;3.53;;;4.10;48.50;;;;;;5012071;28;20486;-53
2022/04/09 01:30:55;;;;;;;15.37;3.60;;;4.00;99.90;;;;;;5011465;28;20520;-57
2022/04/09 01:33:22;;;;;;;9.97;3.60;;;4.00;99.90;;;;;;5011836;28;20549;-54
2022/04/09 01:35:50;;;;;;;16.33;3.37;;;4.00;99.90;;;;;;5011677;28;20454;-53
2022/04/09 01:38:17;;;;;;;14.07;3.30;;;4.10;99.90;;;;;;5011791;28;20470;-57
2022/04/09 01:40:45;;;;;;;10.43;3.47;;;4.10;99.90;;;;;;5009975;28;20933;-55
2022/04/09 01:43:12;;;;;;;16.47;4.23;;;4.00;99.90;;;;;;5011814;28;21018;-56
2022/04/09 01:45:39;;;;;;;9.80;3.03;;;4.00;1.00;;;;;;5011605;28;20462;-57
2022/04/09 01:48:05;;;;;;;7.83;3.23;;;4.00;1.00;;;;;;5011055;28;21058;-51
2022/04/09 01:50:32;;;;;;;8.80;3.30;;;4.10;1.00;;;;;;5011774;28;20512;-54
2022/04/09 01:52:59;;;;;;;10.53;3.50;;;4.10;1.00;;;;;;5011792;28;20500;-55
2022/04/09 01:55:26;;;;;;;16.70;4.00;;;4.10;1.00;;;;;;5011828;28;20450;-55
2022/04/09 01:57:54;;;;;;;11.97;4.00;;;4.10;1.00;;;;;;5008074;28;20520;-55
2022/04/09 02:00:22;;;;;;;7.97;3.10;;;4.10;1.00;;;;;;5011343;28;20960;-56
2022/04/09 02:02:49;;;;;;;8.57;3.17;;;4.20;1.00;;;;;;5011858;28;20457;-53
2022/04/09 02:05:16;;;;;;;12.77;3.50;;;4.10;1.00;;;;;;5011482;28;20457;-55
2022/04/09 02:07:43;;;;;;;12.90;3.57;;;4.10;1.00;;;;;;5011040;28;20481;-56
2022/04/09 02:10:11;;;;;;;10.67;3.10;;;4.10;1.00;;;;;;5011500;28;21000;-57
2022/04/09 02:12:38;;;;;;;11.87;3.97;;;4.10;1.00;;;;;;5008667;28;20932;-55
2022/04/09 02:15:09;;;;;;;11.77;3.57;;;4.10;1.00;;;;;;5011357;28;20454;-55
2022/04/09 02:17:36;;;;;;;8.33;3.47;;;4.10;1.00;;;;;;5011006;28;20482;-56
2022/04/09 02:20:02;;;;;;;13.13;3.70;;;4.10;1.00;;;;;;5011216;28;20490;-56
2022/04/09 02:22:35;;;;;;;12.27;3.37;;;4.10;28.00;;;;;;5011623;28;20450;-54
2022/04/09 02:25:02;;;;;;;9.93;2.93;;;4.00;80.70;;;;;;5011483;28;21004;-53
2022/04/09 02:27:28;;;;;;;17.33;3.77;;;3.90;99.90;;;;;;5010598;28;20474;-50
2022/04/09 02:29:55;;;;;;;6.80;2.87;;;3.90;99.90;;;;;;5009707;28;20486;-53
2022/04/09 02:32:24;;;;;;;8.30;2.90;;;3.90;99.90;;;;;;5011635;28;20852;-55
2022/04/09 02:34:52;;;;;;;11.67;3.37;;;3.80;99.90;;;;;;5011613;28;20802;-56
2022/04/09 02:37:19;;;;;;;10.27;3.23;;;3.80;99.90;;;;;;5010723;28;20699;-56
2022/04/09 02:39:45;;;;;;;11.67;3.43;;;3.80;99.90;;;;;;5011213;28;20445;-52
2022/04/09 02:42:12;;;;;;;11.77;3.83;;;3.80;99.90;;;;;;5011171;28;20867;-53
2022/04/09 02:44:39;;;;;;;11.67;3.93;;;3.80;99.90;;;;;;5009927;28;20493;-58
2022/04/09 02:47:06;;;;;;;10.80;3.60;;;3.80;99.90;;;;;;5010802;28;20470;-54
2022/04/09 02:49:34;;;;;;;11.37;3.80;;;3.80;99.90;;;;;;5011145;28;21012;-54
2022/04/09 02:52:00;;;;;;;16.43;3.90;;;3.80;99.90;;;;;;5011299;28;20481;-56
2022/04/09 02:54:27;;;;;;;9.83;3.60;;;3.80;99.90;;;;;;5011262;28;20512;-56
2022/04/09 02:56:54;;;;;;;11.43;3.93;;;3.90;99.90;;;;;;5010961;28;20477;-53
2022/04/09 02:59:20;;;;;;;11.07;3.07;;;3.90;99.90;;;;;;5011406;28;20457;-56
2022/04/09 03:01:47;;;;;;;15.20;3.17;;;3.90;99.90;;;;;;5009189;28;20461;-54
2022/04/09 03:04:16;;;;;;;12.07;3.47;;;3.90;99.90;;;;;;5011036;28;20462;-56
2022/04/09 03:06:44;;;;;;;9.53;3.03;;;3.80;99.90;;;;;;5010943;28;20524;-57
2022/04/09 03:09:10;;;;;;;10.00;3.10;;;3.80;99.90;;;;;;5010199;28;20486;-56
2022/04/09 03:11:38;;;;;;;11.97;3.27;;;3.80;99.90;;;;;;5011244;28;20940;-54
2022/04/09 03:14:04;;;;;;;11.43;3.13;;;3.90;99.90;;;;;;5013534;28;20543;-54
2022/04/09 03:16:32;;;;;;;8.60;3.00;;;3.80;99.90;;;;;;5014204;28;20547;-52
2022/04/09 03:18:58;;;;;;;8.17;2.67;;;3.90;99.90;;;;;;5012684;28;20446;-54
2022/04/09 03:21:25;;;;;;;8.07;3.20;;;3.80;99.90;;;;;;5013936;28;20520;-56
2022/04/09 03:23:53;;;;;;;5.33;2.73;;;3.80;99.90;;;;;;5014143;28;20450;-52
2022/04/09 03:26:20;;;;;;;6.07;2.23;;;3.80;99.90;;;;;;5014054;28;20879;-49
2022/04/09 03:28:46;;;;;;;8.70;2.83;;;3.80;99.90;;;;;;5014457;28;20604;-50
2022/04/09 03:31:13;;;;;;;8.13;2.50;;;3.70;99.90;;;;;;5014326;28;20819;-53
2022/04/09 03:33:40;;;;;;;10.67;2.80;;;3.70;99.90;;;;;;5014270;28;20500;-54
2022/04/09 03:36:07;;;;;;;12.70;2.87;;;3.60;99.90;;;;;;5008723;28;20538;-54
2022/04/09 03:38:34;;;;;;;8.13;3.03;;;3.70;99.90;;;;;;4994556;28;20438;-56
2022/04/09 03:41:02;;;;;;;10.67;2.73;;;3.70;99.90;;;;;;4994582;28;20455;-53
2022/04/09 03:43:30;;;;;;;11.03;3.57;;;3.70;99.90;;;;;;4994412;28;20454;-55
2022/04/09 03:45:57;;;;;;;14.80;3.63;;;3.70;99.90;;;;;;4994022;28;20537;-49
2022/04/09 03:48:23;;;;;;;9.63;2.47;;;3.60;99.90;;;;;;4994321;28;20478;-56
2022/04/09 03:50:50;;;;;;;10.97;2.37;;;3.60;99.90;;;;;;4994148;28;20455;-52
2022/04/09 03:53:20;;;;;;;11.90;3.03;;;3.70;99.90;;;;;;4992517;28;20514;-56
2022/04/09 03:55:46;;;;;;;8.93;4.13;;;3.70;99.90;;;;;;4994359;28;20488;-52
2022/04/09 03:58:15;;;;;;;13.57;3.40;;;3.70;99.90;;;;;;4993992;28;21008;-53
2022/04/09 04:00:42;;;;;;;7.77;2.30;;;3.70;99.90;;;;;;4994217;28;20829;-56
2022/04/09 04:03:10;;;;;;;7.17;2.60;;;3.70;99.90;;;;;;4993680;28;20455;-54
2022/04/09 04:05:37;;;;;;;9.10;3.10;;;3.70;99.90;;;;;;4994329;28;20462;-53
2022/04/09 04:08:04;;;;;;;10.47;2.37;;;3.60;99.90;;;;;;4993620;28;20578;-57
2022/04/09 04:10:32;;;;;;;10.97;2.93;;;3.60;99.90;;;;;;4993981;28;20522;-54
2022/04/09 04:12:59;;;;;;;14.83;2.90;;;3.50;99.90;;;;;;4993751;28;20455;-57
2022/04/09 04:15:27;;;;;;;13.03;2.90;;;3.50;99.90;;;;;;4994015;28;20451;-57
2022/04/09 04:17:55;;;;;;;6.53;2.23;;;3.50;99.90;;;;;;4993238;28;20486;-52
2022/04/09 04:20:23;;;;;;;9.03;2.53;;;3.40;99.90;;;;;;4993709;28;20933;-56
2022/04/09 04:22:51;;;;;;;5.33;2.37;;;3.40;99.90;;;;;;4993815;28;20463;-56
2022/04/09 04:25:18;;;;;;;11.10;3.60;;;3.40;99.90;;;;;;4993535;28;20553;-57
2022/04/09 04:27:46;;;;;;;12.13;3.33;;;3.40;99.90;;;;;;4993328;28;20474;-57
2022/04/09 04:30:13;;;;;;;8.03;2.10;;;3.30;99.90;;;;;;4993488;28;20526;-55
2022/04/09 04:32:42;;;;;;;9.43;2.70;;;3.40;99.90;;;;;;4993087;28;20454;-51
2022/04/09 04:35:09;;;;;;;10.63;3.10;;;3.30;99.90;;;;;;4993686;28;20454;-55
2022/04/09 04:37:39;;;;;;;8.47;3.03;;;3.20;99.90;;;;;;4993923;28;20478;-57
2022/04/09 04:40:07;;;;;;;9.90;3.23;;;3.20;99.90;;;;;;4993560;28;20457;-53
2022/04/09 04:42:34;;;;;;;6.73;2.40;;;3.20;99.90;;;;;;4993139;28;20461;-56
2022/04/09 04:45:01;;;;;;;9.17;2.47;;;3.20;99.90;;;;;;4993095;28;20505;-55
2022/04/09 04:47:27;;;;;;;9.07;2.73;;;3.20;99.90;;;;;;4992800;28;20470;-55
2022/04/09 04:49:55;;;;;;;13.50;3.00;;;3.20;99.90;;;;;;4993047;28;20497;-56
2022/04/09 04:52:22;;;;;;;5.00;2.47;;;3.20;99.90;;;;;;4992952;28;20455;-55
2022/04/09 04:54:48;;;;;;;13.30;3.23;;;3.20;99.90;;;;;;4992996;28;20516;-57
2022/04/09 04:57:15;;;;;;;7.37;2.63;;;3.20;99.90;;;;;;4992788;28;20466;-57
2022/04/09 04:59:42;;;;;;;8.27;2.67;;;3.20;99.90;;;;;;4992755;28;20457;-52
2022/04/09 05:02:08;;;;;;;14.07;3.13;;;3.20;1.00;;;;;;4993014;28;20502;-57
2022/04/09 05:04:35;;;;;;;8.10;2.80;;;3.20;1.00;;;;;;4993086;28;20518;-56
2022/04/09 05:07:04;;;;;;;12.80;3.00;;;3.20;1.00;;;;;;4992585;28;20473;-56
2022/04/09 05:09:32;;;;;;;11.27;2.77;;;3.20;1.00;;;;;;4992845;28;21268;-53
2022/04/09 05:11:58;;;;;;;17.27;3.20;;;3.30;1.00;;;;;;4992576;28;20477;-56
2022/04/09 05:14:25;;;;;;;11.47;2.57;;;3.40;1.00;;;;;;4993142;28;20455;-54
2022/04/09 05:16:52;;;;;;;15.43;3.33;;;3.30;1.00;;;;;;4992465;28;20482;-54
2022/04/09 05:19:18;;;;;;;9.50;2.73;;;3.40;1.00;;;;;;4992748;28;20549;-54
2022/04/09 05:21:47;;;;;;;9.53;2.47;;;3.40;99.90;;;;;;4992589;28;21013;-52
2022/04/09 05:24:15;;;;;;;7.80;2.43;;;3.40;99.90;;;;;;4992526;28;20462;-55
2022/04/09 05:26:42;;;;;;;9.10;2.50;;;3.50;99.90;;;;;;4991689;28;20516;-52
2022/04/09 05:29:09;;;;;;;11.83;2.83;;;3.50;99.90;;;;;;4992515;28;20509;-54
2022/04/09 05:31:36;;;;;;;8.77;2.70;;;3.50;99.90;;;;;;4992471;28;20512;-52
2022/04/09 05:34:02;;;;;;;13.90;3.47;;;3.60;99.90;;;;;;4992642;28;21032;-53
2022/04/09 05:36:29;;;;;;;7.23;2.87;;;3.70;99.90;;;;;;4991429;28;20470;-54
2022/04/09 05:38:55;;;;;;;8.50;3.37;;;3.80;99.90;;;;;;4992031;28;20489;-56
2022/04/09 05:41:23;;;;;;;10.63;2.40;;;3.90;99.90;;;;;;4991901;28;20455;-56
2022/04/09 05:43:50;;;;;;;10.27;2.87;;;4.00;99.90;;;;;;4992477;28;20455;-56
2022/04/09 05:46:18;;;;;;;18.80;3.90;;;4.00;77.40;;;;;;4992197;28;20450;-52
2022/04/09 05:48:45;;;;;;;7.60;2.80;;;4.00;57.90;;;;;;4992381;28;20538;-55
2022/04/09 05:51:11;;;;;;;5.03;2.70;;;4.10;1.00;;;;;;4992198;28;20490;-54
2022/04/09 05:53:38;;;;;;;10.37;2.43;;;4.10;43.30;;;;;;4991926;28;20830;-52
2022/04/09 05:56:05;;;;;;;14.97;3.40;;;4.20;1.00;;;;;;4992165;28;20836;-56
2022/04/09 05:58:34;;;;;;;9.67;3.20;;;4.20;1.00;;;;;;4998836;28;20561;-58
2022/04/09 06:01:01;;;;;;;10.23;2.37;;;4.30;99.90;;;;;;5011798;28;20450;-54
2022/04/09 06:03:28;;;;;;;10.60;2.90;;;4.40;99.90;;;;;;5011940;28;20454;-52
2022/04/09 06:05:54;;;;;;;11.80;3.03;;;4.50;99.90;;;;;;5011250;28;20449;-50
2022/04/09 06:08:21;;;;;;;6.83;2.53;;;4.50;1.00;;;;;;5011232;28;20601;-56
2022/04/09 06:10:48;;;;;;;9.37;2.90;;;4.60;99.90;;;;;;5011568;28;20485;-52
2022/04/09 06:13:15;;;;;;;8.47;2.80;;;4.50;99.90;;;;;;5011419;28;20971;-54
2022/04/09 06:15:45;;;;;;;6.43;2.97;;;4.50;99.90;;;;;;4999618;28;20451;-52
2022/04/09 06:18:11;;;;;;;10.60;2.67;;;4.50;49.50;;;;;;4991365;28;20482;-53
2022/04/09 06:20:38;;;;;;;12.83;3.23;;;4.40;99.90;;;;;;4992045;28;20899;-57
2022/04/09 06:23:06;;;;;;;9.13;2.97;;;4.50;99.90;;;;;;4991376;28;20455;-55
2022/04/09 06:25:33;;;;;;;9.23;2.73;;;4.60;1.00;;;;;;4992147;28;20458;-55
2022/04/09 06:27:59;;;;;;;6.77;2.50;;;4.70;99.90;;;;;;4991613;28;20891;-55
2022/04/09 06:30:26;;;;;;;4.63;2.47;;;4.70;99.90;;;;;;4991843;28;20863;-53
2022/04/09 06:32:54;;;;;;;8.53;2.40;;;4.70;1.00;;;;;;5001603;28;20465;-55
2022/04/09 06:35:21;;;;;;;10.90;2.93;;;4.70;99.90;;;;;;5010937;28;20449;-53
2022/04/09 06:37:47;;;;;;;7.77;2.87;;;4.70;99.90;;;;;;5011178;28;20500;-55
2022/04/09 06:40:14;;;;;;;14.27;3.17;;;4.70;99.90;;;;;;5011225;28;20504;-55
2022/04/09 06:42:42;;;;;;;13.03;2.30;;;4.60;99.90;;;;;;5011592;28;20449;-54
2022/04/09 06:45:10;;;;;;;11.80;2.40;;;4.60;99.90;;;;;;5011330;28;20952;-55
2022/04/09 06:47:38;;;;;;;8.63;2.93;;;4.70;72.70;;;;;;5011002;28;20524;-55
2022/04/09 06:50:08;;;;;;;13.20;3.33;;;4.80;99.90;;;;;;5003426;28;20482;-56
2022/04/09 06:52:35;;;;;;;9.37;3.10;;;4.90;1.00;;;;;;4995468;28;20542;-56
2022/04/09 06:55:03;;;;;;;14.47;2.53;;;5.00;99.90;;;;;;4995554;28;20207;-56
2022/04/09 06:57:30;;;;;;;10.53;2.57;;;5.10;1.00;;;;;;4995046;28;20738;-56
2022/04/09 06:59:57;;;;;;;8.93;2.90;;;5.20;96.50;;;;;;4995803;28;20200;-55
2022/04/09 07:02:24;;;;;;;8.87;3.37;;;5.30;78.70;;;;;;4995432;28;20377;-53
2022/04/09 07:04:50;;;;;;;13.33;3.73;;;5.40;99.90;;;;;;4999249;28;20257;-56
2022/04/09 07:07:21;;;;;;;9.57;3.33;;;5.50;99.90;;;;;;5013602;28;20540;-55
2022/04/09 07:09:48;;;;;;;12.00;3.10;;;5.60;99.90;;;;;;5014939;28;20294;-57
2022/04/09 07:12:15;;;;;;;11.40;2.90;;;5.60;99.90;;;;;;5015134;28;20207;-56
2022/04/09 07:14:42;;;;;;;10.53;2.70;;;5.60;1.00;;;;;;5015210;28;20302;-56
2022/04/09 07:17:09;;;;;;;11.63;3.53;;;5.70;99.90;;;;;;5013645;28;20235;-56
2022/04/09 07:19:38;;;;;;;5.03;2.17;;;5.70;1.00;;;;;;5014924;28;20561;-56
2022/04/09 07:22:05;;;;;;;7.03;2.30;;;5.80;90.30;;;;;;5012593;28;20230;-54
2022/04/09 07:24:33;;;;;;;8.77;2.83;;;6.00;1.00;;;;;;5014158;28;20220;-54
2022/04/09 07:26:59;;;;;;;7.40;2.33;;;6.20;99.90;;;;;;5013775;28;20231;-57
2022/04/09 07:29:26;;;;;;;9.53;2.30;;;6.20;99.90;;;;;;5014269;28;20211;-55
2022/04/09 07:31:53;;;;;;;8.20;2.57;;;6.20;99.90;;;;;;5014192;28;20258;-56
2022/04/09 07:34:19;;;;;;;10.67;3.17;;;6.10;99.90;;;;;;5014472;28;20208;-56
2022/04/09 07:36:46;;;;;;;10.33;2.60;;;6.20;1.00;;;;;;5014346;28;20616;-58
2022/04/09 07:39:13;;;;;;;9.40;2.77;;;6.30;99.90;;;;;;5012015;28;20212;-57
2022/04/09 07:41:41;;;;;;;8.27;2.67;;;6.40;99.90;;;;;;5014143;28;20211;-58
2022/04/09 07:44:08;;;;;;;14.13;2.90;;;6.50;99.90;;;;;;5014419;28;20209;-55
2022/04/09 07:46:35;;;;;;;11.20;2.60;;;6.40;99.90;;;;;;5013808;28;20228;-57
2022/04/09 07:49:02;;;;;;;8.90;3.33;;;6.50;99.90;;;;;;5013863;28;20321;-57
2022/04/09 07:51:28;;;;;;;8.70;2.20;;;6.50;99.90;;;;;;5013924;28;20301;-56
2022/04/09 07:53:55;;;;;;;10.27;2.77;;;6.40;99.90;;;;;;5013756;28;20258;-56
2022/04/09 07:56:22;;;;;;;12.27;2.33;;;6.50;99.90;;;;;;5011834;28;20265;-57
2022/04/09 07:58:50;;;;;;;9.47;2.43;;;6.60;99.90;;;;;;5012947;28;20648;-55
2022/04/09 08:01:16;;;;;;;8.30;2.13;;;6.60;99.90;;;;;;5013519;28;20201;-57
2022/04/09 08:03:43;;;;;;;5.73;2.37;;;6.70;1.00;;;;;;5013712;28;20233;-50
2022/04/09 08:06:09;;;;;;;7.70;2.63;;;6.80;11.50;;;;;;5013134;28;20264;-56
2022/04/09 08:08:36;;;;;;;12.60;2.80;;;6.50;99.90;;;;;;5013625;28;20215;-52
2022/04/09 08:11:03;;;;;;;7.87;3.00;;;6.30;1.00;;;;;;5012804;28;20236;-57
2022/04/09 08:13:29;;;;;;;10.47;3.70;;;6.00;99.90;;;;;;5011219;28;20216;-57
2022/04/09 08:15:57;;;;;;;10.00;3.63;;;5.80;90.30;;;;;;5012975;28;20211;-58
2022/04/09 08:18:24;;;;;;;7.00;3.43;;;5.70;99.90;;;;;;5013215;28;20713;-56
2022/04/09 08:20:51;;;;;;;12.30;3.67;;;5.80;99.90;;;;;;5012934;28;20207;-56
2022/04/09 08:23:17;;;;;;;8.47;3.37;;;6.00;1.00;;;;;;5013289;28;20211;-55
2022/04/09 08:25:44;;;;;;;9.80;3.37;;;6.10;1.00;;;;;;5013311;28;20212;-57
2022/04/09 08:28:11;;;;;;;10.17;2.90;;;6.20;99.90;;;;;;5012271;28;20239;-57
2022/04/09 08:30:40;;;;;;;10.60;2.97;;;6.20;1.00;;;;;;5012582;28;20657;-54
2022/04/09 08:33:10;;;;;;;13.63;3.33;;;6.40;1.00;;;;;;5012959;28;20212;-56
2022/04/09 08:35:37;;;;;;;9.50;3.23;;;6.60;99.90;;;;;;5013233;28;20209;-57
2022/04/09 08:38:04;;;;;;;8.77;2.70;;;6.80;1.00;;;;;;5012573;28;20227;-55
2022/04/09 08:40:33;;;;;;;9.20;2.63;;;7.10;1.00;;;;;;5012454;28;20228;-56
2022/04/09 08:43:01;;;;;;;7.17;3.10;;;7.10;99.90;;;;;;5012896;28;20210;-57
2022/04/09 08:45:27;;;;;;;4.40;2.60;;;6.90;99.90;;;;;;5002685;28;20209;-57
2022/04/09 08:47:55;;;;;;;7.67;2.83;;;6.60;1.00;;;;;;4993217;28;20228;-56
2022/04/09 08:50:24;;;;;;;9.57;3.50;;;6.30;99.90;;;;;;4993018;28;20628;-58
2022/04/09 08:52:52;;;;;;;10.63;3.47;;;6.20;38.70;;;;;;4992722;28;20210;-56
2022/04/09 08:55:19;;;;;;;8.63;3.00;;;6.30;99.90;;;;;;4992921;28;20685;-57
2022/04/09 08:57:46;;;;;;;7.10;2.63;;;6.40;1.00;;;;;;4992758;28;20228;-56
2022/04/09 09:00:17;;;;;;;7.27;3.10;;;6.60;99.90;;;;;;4993042;28;20218;-57
2022/04/09 09:02:51;;;;;;;10.30;3.27;;;6.80;1.00;;;;;;4997066;28;20211;-57
2022/04/09 09:05:34;;;;;;;11.80;3.73;;;6.90;1.00;;;;;;5012174;28;20220;-57
2022/04/09 09:08:02;;;;;;;9.40;3.70;;;7.00;1.00;;;;;;5012018;28;20716;-52
2022/04/09 09:10:29;;;;;;;13.13;3.63;;;7.30;99.90;;;;;;5011102;28;20227;-55
2022/04/09 09:13:00;;;;;;;15.17;2.73;;;7.50;99.90;;;;;;5012456;28;20228;-55
2022/04/09 09:15:27;;;;;;;7.90;3.03;;;7.70;1.00;;;;;;5012176;28;20293;-55
2022/04/09 09:17:57;;;;;;;8.17;3.17;;;7.90;99.90;;;;;;5011742;28;20239;-57
2022/04/09 09:20:24;;;;;;;6.20;2.70;;;8.10;1.00;;;;;;4991707;28;20226;-58
2022/04/09 09:22:54;;;;;;;7.13;2.20;;;8.20;99.90;;;;;;4993133;28;20582;-57
2022/04/09 09:25:20;;;;;;;5.27;2.10;;;8.40;1.00;;;;;;4992377;28;20204;-57
2022/04/09 09:27:56;;;;;;;4.13;1.97;;;8.60;1.00;;;;;;4992107;28;20273;-57
2022/04/09 09:30:22;;;;;;;4.00;1.97;;;8.60;1.00;;;;;;4992196;28;20214;-56
2022/04/09 09:33:07;;;;;;;4.37;1.70;;;8.20;1.00;;;;;;4992406;28;20216;-55
2022/04/09 09:35:54;;;;;;;3.33;1.33;;;8.20;1.00;;;;;;4997047;28;20203;-52
2022/04/09 09:38:24;;;;;;;2.13;1.07;;;8.00;1.00;;;;;;5010919;28;20227;-53
2022/04/09 09:40:51;;;;;;;3.53;1.50;;;7.80;1.00;;;;;;4991949;28;20290;-56
2022/04/09 09:43:19;;;;;;;3.87;1.20;;;7.60;1.00;;;;;;4992141;28;20223;-55
2022/04/09 09:45:46;;;;;;;6.80;1.80;;;7.60;1.00;;;;;;4991634;28;20211;-53
2022/04/09 09:48:23;;;;;;;6.80;1.20;;;7.90;99.90;;;;;;4991706;28;20298;-56
2022/04/09 09:50:50;;;;;;;4.60;1.23;;;8.10;1.00;;;;;;4992009;28;20219;-58
2022/04/09 09:53:31;;;;;;;5.20;1.20;;;7.70;1.00;;;;;;5004924;28;20403;-55
2022/04/09 09:55:59;;;;;;;1.20;1.03;;;7.40;1.00;;;;;;4991081;28;20622;-53
2022/04/09 09:58:27;;;;;;;1.80;0.93;;;6.90;3.90;;;;;;4991921;28;20232;-57
2022/04/09 10:00:55;;;;;;;3.27;1.10;;;6.80;99.90;;;;;;4991566;28;20626;-56
2022/04/09 10:03:23;;;;;;;3.33;1.33;;;6.70;99.90;;;;;;4991408;28;20269;-57
2022/04/09 10:05:50;;;;;;;3.23;1.27;;;6.70;99.90;;;;;;4990851;28;20265;-56
2022/04/09 10:08:17;;;;;;;1.43;0.70;;;6.80;99.90;;;;;;4993623;28;20480;-55
2022/04/09 10:10:48;;;;;;;3.90;1.20;;;6.90;33.10;;;;;;4991788;28;20587;-55
2022/04/09 10:13:19;;;;;;;1.67;0.63;;;7.10;99.90;;;;;;4991746;28;20211;-55
2022/04/09 10:15:50;;;;;;;2.03;0.67;;;7.50;1.00;;;;;;4991485;28;20270;-54
2022/04/09 10:18:20;;;;;;;0.60;0.60;;;7.60;1.00;;;;;;4990989;28;20231;-54
2022/04/09 10:20:50;;;;;;;1.10;0.60;;;7.40;1.00;;;;;;4991762;28;20211;-56
2022/04/09 10:23:18;;;;;;;1.60;1.03;;;7.50;1.00;;;;;;4994750;28;20214;-59
2022/04/09 10:25:48;;;;;;;2.73;1.00;;;7.70;1.00;;;;;;4995735;28;20716;-60
2022/04/09 10:28:30;;;;;;;3.07;1.50;;;8.10;96.90;;;;;;4994870;28;20331;-52
2022/04/09 10:30:57;;;;;;;2.27;1.40;;;8.20;99.90;;;;;;4995464;28;20230;-51
2022/04/09 10:33:27;;;;;;;7.03;1.90;;;8.30;1.00;;;;;;4995686;28;20211;-51
2022/04/09 10:35:55;;;;;;;4.90;2.00;;;8.40;99.90;;;;;;4995290;28;20212;-53
2022/04/09 10:38:23;;;;;;;3.53;1.80;;;8.60;1.00;;;;;;4994902;28;20254;-54
2022/04/09 10:41:23;;;;;;;5.60;1.87;;;8.80;99.90;;;;;;4995031;28;20210;-60
2022/04/09 10:43:52;;;;;;;5.43;1.80;;;9.10;99.90;;;;;;4995545;28;20212;-60
2022/04/09 10:46:21;;;;;;;6.50;1.83;;;9.20;99.90;;;;;;4995707;28;20295;-60
2022/04/09 10:48:48;;;;;;;4.80;1.90;;;9.00;99.90;;;;;;4995404;28;20219;-61
2022/04/09 10:51:16;;;;;;;3.87;2.00;;;9.20;99.90;;;;;;4995314;28;20236;-62
2022/04/09 10:53:44;;;;;;;3.47;1.77;;;9.40;99.90;;;;;;4995118;28;20651;-62
2022/04/09 10:56:20;;;;;;;3.07;1.70;;;9.30;99.90;;;;;;4994850;28;20255;-59
2022/04/09 10:59:05;;;;;;;7.17;2.40;;;9.20;99.90;;;;;;4995106;28;20271;-61
2022/04/09 11:01:52;;;;;;;5.10;2.07;;;9.30;99.90;;;;;;4995148;28;20218;-60
2022/04/09 11:04:38;;;;;;;4.50;1.83;;;9.80;99.90;;;;;;4994561;28;20217;-60
2022/04/09 11:07:06;;;;;;;3.80;1.77;;;9.40;99.90;;;;;;4994251;28;20778;-62
2022/04/09 11:10:03;;;;;;;4.97;1.80;;;9.50;99.90;;;;;;4994830;28;20212;-52
2022/04/09 11:12:32;;;;;;;4.57;1.90;;;9.30;99.90;;;;;;4953579;29;20256;-58
2022/04/09 11:15:01;;;;;;;5.90;1.87;;;9.10;99.90;;;;;;4985698;28;20203;-56
2022/04/09 11:17:32;;;;;;;1.93;1.00;;;9.00;94.00;;;;;;4994116;28;20322;-54
2022/04/09 11:20:05;;;;;;;0.73;0.60;;;8.30;99.90;;;;;;4994984;28;20260;-57
2022/04/09 11:22:34;;;;;;;2.97;0.67;;;7.20;99.90;;;;;;4994515;28;20200;-56
2022/04/09 11:25:01;;;;;;;0.80;0.60;;;6.30;99.00;;;;;;4994330;28;20209;-57
2022/04/09 11:27:28;;;;;;;1.03;0.70;;;5.50;1.00;;;;;;4994192;28;20227;-52
2022/04/09 11:29:55;;;;;;;1.67;0.83;;;4.90;89.70;;;;;;4994796;28;20208;-55
2022/04/09 11:32:24;;;;;;;1.40;0.77;;;4.40;99.90;;;;;;4994600;28;20490;-54
2022/04/09 11:34:53;;;;;;;2.17;0.80;;;4.00;99.90;;;;;;4992867;28;20823;-58
2022/04/09 11:37:20;;;;;;;1.20;1.10;;;3.90;99.90;;;;;;4993763;28;20541;-56
2022/04/09 11:39:48;;;;;;;1.40;0.80;;;3.70;1.00;;;;;;4994133;28;20455;-57
2022/04/09 11:42:16;;;;;;;3.67;1.40;;;3.60;99.90;;;;;;4994635;28;20446;-55
2022/04/09 11:44:43;;;;;;;3.67;0.87;;;3.60;1.00;;;;;;4994236;28;20466;-54
2022/04/09 11:47:12;;;;;;;2.27;0.60;;;3.60;1.00;;;;;;4993358;28;20957;-59
2022/04/09 11:49:39;;;;;;;2.17;0.90;;;3.70;1.00;;;;;;4994372;28;20854;-51
2022/04/09 11:52:07;;;;;;;1.83;1.20;;;3.90;99.90;;;;;;4993777;28;20482;-54
2022/04/09 11:54:35;;;;;;;1.57;0.87;;;4.20;99.90;;;;;;5000414;28;20513;-53
2022/04/09 11:57:03;;;;;;;2.13;1.20;;;4.50;99.90;;;;;;4993374;28;21254;-56
2022/04/09 11:59:31;;;;;;;2.17;1.30;;;4.70;99.90;;;;;;4993844;28;20212;-57
2022/04/09 12:01:58;;;;;;;1.50;1.20;;;5.00;99.90;;;;;;4993479;28;20662;-56
2022/04/09 12:04:32;;;;;;;3.47;1.43;;;5.40;99.90;;;;;;4993326;28;20513;-57
2022/04/09 12:07:02;;;;;;;2.07;0.90;;;5.80;99.90;;;;;;4993767;28;20235;-54
2022/04/09 12:09:30;;;;;;;2.60;1.10;;;6.30;1.00;;;;;;4994008;28;20210;-51
2022/04/09 12:12:00;;;;;;;3.33;1.47;;;6.50;1.00;;;;;;4992121;28;20224;-55
2022/04/09 12:14:27;;;;;;;4.13;1.07;;;6.70;99.90;;;;;;4994015;28;20258;-59
2022/04/09 12:16:54;;;;;;;3.20;1.27;;;6.90;99.90;;;;;;4992972;28;20242;-60
2022/04/09 12:19:29;;;;;;;3.93;1.40;;;7.00;99.90;;;;;;4993131;28;20237;-57
2022/04/09 12:21:56;;;;;;;2.13;1.17;;;7.10;11.30;;;;;;4993635;28;20220;-58
2022/04/09 12:24:24;;;;;;;6.27;1.90;;;7.20;30.80;;;;;;4993195;28;20214;-52
2022/04/09 12:26:57;;;;;;;3.77;1.50;;;7.10;1.00;;;;;;4992991;28;20234;-56
2022/04/09 12:29:26;;;;;;;3.50;1.30;;;7.20;99.90;;;;;;5005446;28;20673;-53
2022/04/09 12:32:13;;;;;;;2.80;1.57;;;7.40;1.00;;;;;;5012714;28;20227;-54
2022/04/09 12:34:51;;;;;;;2.83;1.47;;;7.50;99.90;;;;;;5012789;28;20704;-55
2022/04/09 12:37:18;;;;;;;4.60;1.20;;;7.70;99.90;;;;;;5012323;28;20743;-54
2022/04/09 12:39:46;;;;;;;2.77;1.30;;;7.90;1.00;;;;;;5030486;28;20202;-58
2022/04/09 12:42:15;;;;;;;4.17;1.10;;;8.10;1.00;;;;;;5032480;28;20264;-53
2022/04/09 12:44:42;;;;;;;3.27;1.50;;;8.40;99.90;;;;;;5010132;28;20207;-48
2022/04/09 12:47:10;;;;;;;2.40;1.03;;;8.60;1.00;;;;;;5012441;28;20233;-51
2022/04/09 12:49:38;;;;;;;2.30;1.00;;;8.70;3.70;;;;;;5012662;28;20211;-56
2022/04/09 12:52:07;;;;;;;3.53;1.10;;;8.90;99.90;;;;;;5012282;28;20226;-57
2022/04/09 12:54:34;;;;;;;2.53;1.30;;;9.00;78.70;;;;;;5012177;28;20208;-51
2022/04/09 12:57:07;;;;;;;3.67;1.20;;;9.10;1.00;;;;;;5012225;28;20718;-53
2022/04/09 12:59:34;;;;;;;2.07;1.20;;;9.30;99.90;;;;;;5012447;28;20256;-56
2022/04/09 13:02:01;;;;;;;1.60;0.80;;;9.40;1.00;;;;;;5010508;28;20236;-55
2022/04/09 13:04:28;;;;;;;3.03;1.40;;;9.30;99.90;;;;;;5012292;28;20214;-53